Latest Weather Observations for Century Mine

IDQ60801

Issued at 5:35 pm EST Friday 19 September 2014 (issued every 30 minutes, with the page automatically refreshed every 10 minutes)

About weather observations | Map of weather stations | Latest weather observations for QLD | Other Formats
Station Details ID: 029167 Name: CENTURY MINE Lat: -18.76 Lon: 138.71 Height: 126.8 m
Data from the previous 72 hours. | See also: Recent months at Century Mine
Date/Time
EST
Temp
°C
App
Temp
°C
Dew
Point
Rel
Hum
%
Delta-T
°C
Wind Press
QNH
hPa
Press
MSL
hPa
Rain
since 9 am
mm
Dir
 
Spd
km/h
Gust
km/h
Spd
kts
Gust
kts
19/05:30pm 34.7 29.9 -2.8 9 17.8 SSE 13 20 7 11 1013.0 1012.3 0.0
19/05:00pm 35.2 30.4 -2.4 9 18.0 SSE 13 22 7 12 1012.9 1012.2 0.0
19/04:30pm 35.3 30.5 -2.3 9 18.0 SE 13 22 7 12 1012.8 1012.1 0.0
19/04:00pm 35.8 30.7 -2.0 9 18.3 SSE 15 26 8 14 1012.9 1012.2 0.0
19/03:30pm 36.1 31.8 -1.7 9 18.4 SSE 11 20 6 11 1013.2 1012.5 0.0
19/03:00pm 35.5 31.1 -2.2 9 18.1 E 11 20 6 11 1013.6 1012.9 0.0
19/02:30pm 34.7 29.9 -2.8 9 17.8 SE 13 24 7 13 1014.1 1013.4 0.0
19/02:00pm 35.1 29.2 -2.5 9 17.9 SE 19 22 10 12 1014.7 1014.0 0.0
19/01:30pm 34.2 30.7 -3.2 9 17.5 E 6 13 3 7 1015.3 1014.6 0.0
19/01:00pm 33.3 27.6 -3.8 9 17.1 ESE 17 22 9 12 1016.0 1015.3 0.0
19/12:30pm 33.4 28.7 -5.3 8 17.4 ENE 11 20 6 11 1016.7 1016.0 0.0
19/12:00pm 33.4 28.7 -5.3 8 17.4 ESE 11 19 6 10 1017.4 1016.7 0.0
19/11:30am 31.8 26.4 -4.9 9 16.4 ESE 15 24 8 13 1018.0 1017.3 0.0
19/11:00am 31.3 25.1 -5.3 9 16.2 ESE 19 24 10 13 1018.4 1017.8 0.0
19/10:30am 30.7 24.4 -5.8 9 15.9 SE 19 28 10 15 1018.8 1018.2 0.0
19/10:00am 30.1 23.8 -6.2 9 15.6 ESE 19 28 10 15 1019.0 1018.4 0.0
19/09:30am 28.3 21.8 -6.2 10 14.7 ESE 20 32 11 17 1019.1 1018.5 0.0
19/09:00am 27.3 21.4 -5.7 11 14.0 ESE 17 20 9 11 1019.0 1018.4 0.0
19/08:30am 25.4 20.7 -5.0 13 12.9 SE 11 17 6 9 1018.9 1018.3 0.0
19/08:00am 22.8 20.9 0.6 23 10.2 CALM 0 0 0 0 1018.6 1018.0 0.0
19/07:57am 21.4 19.6 1.1 26 9.3 CALM 0 0 0 0 1018.6 1018.0 0.0
19/07:30am 16.2 14.8 3.3 42 5.9 CALM 0 0 0 0 1018.1 1017.5 0.0
19/07:00am 13.1 10.3 2.1 47 4.8 SSW 6 9 3 5 1017.7 1017.0 0.0
19/06:30am 12.6 10.9 1.6 47 4.7 CALM 0 0 0 0 1017.4 1016.7 0.0
19/06:00am 12.8 11.0 1.2 45 4.9 SW 0 0 0 0 1017.1 1016.4 0.0
19/05:30am 13.1 10.0 1.1 44 5.1 SSW 7 9 4 5 1016.9 1016.2 0.0
19/05:00am 13.8 12.0 1.5 43 5.3 CALM 0 4 0 2 1016.7 1016.0 0.0
19/04:30am 14.1 11.1 1.1 41 5.6 SSW 6 7 3 4 1016.6 1015.9 0.0
19/04:00am 14.2 10.9 0.1 38 6.0 SSW 7 9 4 5 1016.4 1015.7 0.0
19/03:30am 14.7 11.6 0.2 37 6.2 SSW 6 11 3 6 1016.5 1015.8 0.0
19/03:00am 15.6 13.6 0.2 35 6.6 CALM 0 0 0 0 1016.6 1015.9 0.0
19/02:30am 17.0 15.0 0.2 32 7.3 CALM 0 4 0 2 1016.8 1016.1 0.0
19/02:00am 16.6 14.2 -0.1 32 7.2 SW 2 6 1 3 1016.8 1016.1 0.0
19/01:30am 17.2 14.8 -0.1 31 7.5 N 2 13 1 7 1016.9 1016.2 0.0
19/01:00am 18.2 14.9 -0.1 29 8.0 N 7 13 4 7 1016.7 1016.0 0.0
19/12:30am 18.4 14.7 0.1 29 8.0 SSW 9 9 5 5 1016.8 1016.1 0.0
19/12:00am 19.1 15.4 0.2 28 8.4 SW 9 11 5 6 1016.9 1016.2 0.0
 
Date/Time
EST
Temp
°C
App
Temp
°C
Dew
Point
Rel
Hum
%
Delta-T
°C
Wind Press
QNH
hPa
Press
MSL
hPa
Rain
since 9 am
mm
Dir
 
Spd
km/h
Gust
km/h
Spd
kts
Gust
kts
18/11:30pm 18.7 15.0 -0.2 28 8.3 SW 9 11 5 6 1017.0 1016.3 0.0
18/11:00pm 19.3 16.0 -0.1 27 8.5 SSW 7 9 4 5 1017.0 1016.3 0.0
18/10:30pm 19.6 16.4 -0.4 26 8.8 SSW 6 7 3 4 1017.0 1016.3 0.0
18/10:00pm 19.8 16.6 -0.8 25 9.0 S 6 7 3 4 1016.8 1016.1 0.0
18/09:30pm 21.1 17.8 -0.2 24 9.5 SW 7 9 4 5 1016.7 1016.0 0.0
18/09:00pm 21.3 19.2 -0.6 23 9.7 CALM 0 0 0 0 1016.4 1015.7 0.0
18/08:30pm 22.1 20.0 -0.6 22 10.1 CALM 0 0 0 0 1016.0 1015.3 0.0
18/08:00pm 23.6 20.7 -1.3 19 11.1 ENE 4 7 2 4 1015.6 1014.9 0.0
18/07:30pm 25.9 22.2 -2.7 15 12.7 ENE 7 9 4 5 1015.2 1014.5 0.0
18/07:00pm 28.0 24.3 -3.0 13 13.9 ENE 7 9 4 5 1014.9 1014.2 0.0
18/06:30pm 30.9 27.0 -1.8 12 15.3 ENE 9 13 5 7 1014.6 1013.9 0.0
18/06:00pm 32.5 28.2 -1.7 11 16.2 E 11 17 6 9 1014.4 1013.7 0.0
18/05:30pm 33.2 29.0 -1.2 11 16.5 ESE 11 19 6 10 1014.3 1013.6 0.0
18/05:00pm 33.9 30.3 -2.0 10 17.1 ESE 7 20 4 11 1014.3 1013.6 0.0
18/04:30pm 33.7 30.3 -0.8 11 16.8 S 7 15 4 8 1014.4 1013.7 0.0
18/04:00pm 33.7 29.7 -2.1 10 17.0 E 9 20 5 11 1014.4 1013.7 0.0
18/03:30pm 34.1 29.0 -1.8 10 17.2 E 15 26 8 14 1014.5 1013.8 0.0
18/03:00pm 34.4 30.1 -1.6 10 17.3 E 11 30 6 16 1014.7 1014.0 0.0
18/02:30pm 33.7 28.6 -2.1 10 17.0 E 15 24 8 13 1015.2 1014.5 0.0
18/02:00pm 33.1 27.9 -2.6 10 16.7 ESE 15 26 8 14 1015.8 1015.1 0.0
18/01:30pm 33.8 27.9 -0.7 11 16.8 E 20 28 11 15 1016.3 1015.6 0.0
18/01:00pm 32.9 27.9 -1.4 11 16.4 E 15 24 8 13 1016.8 1016.1 0.0
18/12:30pm 32.7 26.9 -0.4 12 16.1 ENE 20 30 11 16 1017.5 1016.8 0.0
18/12:00pm 32.6 27.3 -0.5 12 16.0 E 17 30 9 16 1018.1 1017.5 0.0
18/11:30am 31.6 25.6 -1.2 12 15.6 E 20 32 11 17 1018.7 1018.1 0.0
18/11:00am 31.6 25.6 -1.2 12 15.6 E 20 32 11 17 1019.1 1018.5 0.0
18/10:30am 30.6 24.5 -2.0 12 15.2 E 20 32 11 17 1019.4 1018.8 0.0
18/10:00am 29.7 23.3 -1.6 13 14.5 E 22 32 12 17 1019.5 1018.9 0.0
18/09:30am 28.5 22.0 -2.6 13 14.1 ESE 22 32 12 17 1019.5 1018.9 0.0
18/09:00am 27.7 22.6 -2.2 14 13.5 ESE 15 24 8 13 1019.4 1018.8 0.0
18/08:30am 25.6 21.9 -2.9 15 12.6 SE 7 17 4 9 1019.2 1018.6 0.0
18/08:00am 22.7 19.3 -2.1 19 10.8 S 6 7 3 4 1018.8 1018.2 0.0
18/07:30am 20.3 17.1 -0.3 25 9.1 S 6 9 3 5 1018.5 1017.9 0.0
18/07:00am 18.4 14.6 -0.9 27 8.3 S 9 11 5 6 1018.0 1017.3 0.0
18/06:30am 17.3 13.3 0.5 32 7.4 S 11 13 6 7 1017.7 1017.0 0.0
18/06:00am 15.2 11.8 1.7 40 6.0 S 9 11 5 6 1017.5 1016.8 0.0
18/05:30am 15.7 13.9 1.1 37 6.4 CALM 0 0 0 0 1017.3 1016.6 0.0
18/05:00am 16.2 12.7 1.5 37 6.5 SSW 9 9 5 5 1017.0 1016.3 0.0
18/04:30am 15.6 12.8 3.4 44 5.6 S 7 9 4 5 1016.8 1016.1 0.0
18/04:00am 15.1 13.6 3.0 44 5.5 CALM 0 6 0 3 1016.7 1016.0 0.0
18/03:30am 15.2 12.7 4.0 47 5.2 SSW 6 7 3 4 1016.6 1015.9 0.0
18/03:00am 15.7 13.2 3.5 44 5.6 SW 6 7 3 4 1016.6 1015.9 0.0
18/02:30am 16.4 13.7 2.8 40 6.2 SSW 6 7 3 4 1016.7 1016.0 0.0
18/02:00am 17.2 14.7 3.5 40 6.4 SE 6 9 3 5 1016.9 1016.2 0.0
18/01:30am 17.6 14.7 1.6 34 7.2 SSE 6 7 3 4 1016.9 1016.2 0.0
18/01:00am 18.1 14.7 2.0 34 7.3 SSW 9 11 5 6 1017.0 1016.3 0.0
18/12:30am 17.9 14.1 -0.4 29 7.9 SW 9 11 5 6 1017.0 1016.3 0.0
18/12:00am 18.2 15.9 -2.1 25 8.5 CALM 0 0 0 0 1017.0 1016.3 0.0
 
Date/Time
EST
Temp
°C
App
Temp
°C
Dew
Point
Rel
Hum
%
Delta-T
°C
Wind Press
QNH
hPa
Press
MSL
hPa
Rain
since 9 am
mm
Dir
 
Spd
km/h
Gust
km/h
Spd
kts
Gust
kts
17/11:30pm 19.0 15.9 -2.6 23 9.0 SW 4 6 2 3 1016.8 1016.1 0.0
17/11:00pm 19.1 15.6 -3.1 22 9.2 SSW 6 7 3 4 1016.6 1015.9 0.0
17/10:30pm 20.2 17.4 -3.4 20 9.8 SE 2 7 1 4 1016.4 1015.7 0.0
17/10:00pm 21.0 17.2 -3.5 19 10.2 N 7 15 4 8 1016.2 1015.5 0.0
17/09:30pm 21.3 18.7 -4.7 17 10.6 CALM 0 0 0 0 1015.8 1015.1 0.0
17/09:00pm 22.1 18.2 -4.9 16 11.1 SE 7 9 4 5 1015.5 1014.8 0.0
17/08:30pm 23.2 19.3 -4.8 15 11.7 SE 7 9 4 5 1015.0 1014.3 0.0
17/08:00pm 25.3 21.3 -6.1 12 13.0 SE 7 7 4 4 1014.5 1013.8 0.0
17/07:30pm 28.7 24.4 -4.6 11 14.6 SE 9 11 5 6 1014.1 1013.4 0.0
17/07:00pm 30.3 26.0 -4.7 10 15.5 SE 9 13 5 7 1013.6 1012.9 0.0
17/06:30pm 32.8 27.4 -4.2 9 16.9 SSE 15 24 8 13 1013.2 1012.5 0.0
17/06:00pm 34.0 27.8 -4.9 8 17.7 SE 19 28 10 15 1012.9 1012.2 0.0
17/05:30pm 34.8 28.7 -4.3 8 18.1 ESE 19 28 10 15 1012.7 1012.0 0.0
17/05:00pm 35.5 29.2 -3.8 8 18.4 E 20 26 11 14 1012.4 1011.7 0.0
17/04:30pm 35.4 30.5 -3.8 8 18.4 S 13 20 7 11 1012.5 1011.8 0.0
17/04:00pm 35.5 29.8 -3.8 8 18.4 S 17 24 9 13 1012.5 1011.8 0.0
17/03:30pm 36.5 31.6 -3.0 8 18.9 SE 13 33 7 18 1012.7 1012.0 0.0
17/03:00pm 35.6 30.3 -3.7 8 18.5 SE 15 26 8 14 1013.0 1012.3 0.0
17/02:30pm 36.2 30.6 -3.3 8 18.7 E 17 24 9 13 1013.2 1012.5 0.0
17/02:00pm 36.4 30.8 -3.1 8 18.8 E 17 28 9 15 1013.5 1012.8 0.0
17/01:30pm 35.9 31.4 -3.5 8 18.6 E 11 17 6 9 1014.1 1013.4 0.0
17/01:00pm 35.7 30.4 -3.6 8 18.5 ENE 15 22 8 12 1014.6 1013.9 0.0
17/12:30pm 34.7 28.5 -2.8 9 17.8 E 20 24 11 13 1015.1 1014.4 0.0
17/12:00pm 34.5 28.9 -2.9 9 17.6 ESE 17 26 9 14 1015.7 1015.0 0.0
17/11:30am 34.4 28.4 -3.0 9 17.6 E 19 32 10 17 1016.3 1015.6 0.0
17/11:00am 33.4 27.9 -2.3 10 16.9 E 17 24 9 13 1016.7 1016.0 0.0
17/10:30am 33.1 28.3 -2.6 10 16.8 ESE 13 22 7 12 1016.9 1016.2 0.0
17/10:00am 30.6 24.4 -3.2 11 15.4 ESE 20 30 11 16 1017.0 1016.3 0.0
17/09:30am 30.2 24.5 -3.5 11 15.3 ESE 17 26 9 14 1017.1 1016.4 0.0
17/09:00am 28.9 22.9 -3.3 12 14.5 SE 19 24 10 13 1017.0 1016.3 -
17/08:30am 27.7 23.7 -2.2 14 13.6 SSE 9 19 5 10 1016.8 1016.1 -
17/08:00am 25.1 22.8 0.6 20 11.5 SSE 2 7 1 4 1016.1 1015.4 -
17/07:30am 20.5 17.5 1.9 29 8.6 S 7 11 4 6 1015.7 1015.0 -
17/07:00am 16.9 14.0 4.6 44 5.8 SW 9 17 5 9 1015.6 1014.9 -
17/06:30am 14.9 12.4 4.0 48 5.0 NW 6 11 3 6 1014.9 1014.2 -
17/06:00am 15.0 13.3 4.1 48 5.1 W 2 7 1 4 1014.7 1014.0 -
17/05:30am 14.3 12.7 2.5 45 5.3 CALM 0 0 0 0 1014.3 1013.6 -
17/05:00am 15.4 13.1 2.9 43 5.7 S 4 6 2 3 1014.1 1013.4 -
17/04:30am 15.5 12.7 3.3 44 5.6 SSE 7 9 4 5 1013.8 1013.1 -
17/04:00am 15.9 13.3 3.4 43 5.8 SSE 6 9 3 5 1014.0 1013.3 -
17/03:30am 16.5 14.9 2.5 39 6.4 CALM 0 4 0 2 1014.0 1013.3 -
17/03:00am 18.2 15.6 3.3 37 7.0 SE 6 11 3 6 1014.2 1013.5 -
17/02:30am 18.0 16.5 3.1 37 6.9 CALM 0 0 0 0 1014.5 1013.8 -
17/02:00am 18.7 15.9 2.9 35 7.4 SSW 7 7 4 4 1014.7 1014.0 -
17/01:30am 19.4 16.7 2.7 33 7.8 SSW 6 9 3 5 1014.6 1013.9 -
17/01:00am 17.5 14.4 0.2 31 7.6 S 6 9 3 5 1014.6 1013.9 -
17/12:30am 18.4 16.4 0.1 29 8.0 CALM 0 0 0 0 1014.6 1013.9 -
17/12:00am 17.8 14.7 0.0 30 7.8 NW 6 9 3 5 1014.7 1014.0 -
 
Date/Time
EST
Temp
°C
App
Temp
°C
Dew
Point
Rel
Hum
%
Delta-T
°C
Wind Press
QNH
hPa
Press
MSL
hPa
Rain
since 9 am
mm
Dir
 
Spd
km/h
Gust
km/h
Spd
kts
Gust
kts
16/11:30pm 18.2 16.1 -0.6 28 8.1 CALM 0 2 0 1 1014.6 1013.9 -
16/11:00pm 19.7 16.5 -0.3 26 8.8 NNW 6 11 3 6 1014.5 1013.8 -
16/10:30pm 19.3 16.1 -0.7 26 8.7 SSW 6 7 3 4 1014.2 1013.5 -
16/10:00pm 19.9 16.7 -0.7 25 9.0 SSW 6 7 3 4 1014.2 1013.5 -
16/09:30pm 20.7 17.5 -0.6 24 9.4 S 6 7 3 4 1014.0 1013.3 -
16/09:00pm 21.4 18.2 -0.6 23 9.8 S 6 7 3 4 1013.7 1013.0 -
16/08:30pm 22.5 19.2 -1.6 20 10.6 S 6 7 3 4 1013.5 1012.8 -
16/08:00pm 23.7 20.1 -2.0 18 11.3 SE 7 7 4 4 1013.1 1012.4 -
16/07:30pm 25.9 23.6 -2.7 15 12.7 CALM 0 0 0 0 1012.6 1011.9 -
16/07:00pm 29.0 26.6 -3.2 12 14.5 CALM 0 0 0 0 1012.3 1011.6 -
16/06:30pm 31.7 28.1 -2.3 11 15.9 E 7 13 4 7 1012.0 1011.3 -
16/06:00pm 33.2 29.5 -2.5 10 16.8 ESE 7 11 4 6 1011.9 1011.2 -

Other Formats:

Comma delimited format used in spreadsheet applications
http://www.bom.gov.au/fwo/IDQ60801/IDQ60801.94261.axf

JavaScript Object Notation format (JSON) in row-major order
http://www.bom.gov.au/fwo/IDQ60801/IDQ60801.94261.json